Terminal Aerodrome Forecast
Issued by NWS

Home | Current Version | Previous Version | Text Only | Print | Product List | Glossary On
Versions: 1 2 3 4 5 6 7 8 9 10 11 12
000
FTUS44 KEPZ 201700
TAFTCS
TAF
KTCS 201720Z 2018/2118 14007KT P6SM FEW250
     FM210300 29005KT P6SM SKC
     FM211300 VRB04KT P6SM FEW200 BKN250=

USA.gov is the U.S. government's official web portal to all federal, state and local government web resources and services.